Time;durP1;ratioP1;P1;durP2;ratioP2;P2;SDS_P1;SDS_P2;PMS_P1;PMS_P2;Temp;Humidity;BMP_temperature;BMP_pressure;BME280_temperature;BME280_humidity;BME280_pressure;Samples;Min_cycle;Max_cycle;Signal;HPM_P1;HPM_P2
2024/02/06 00:01:50;;;;;;;;;12.25;10.75;;;;;9.67;79.03;101737.38;5048734;28;45263;-64
2024/02/06 00:04:16;;;;;;;;;18.75;12.00;;;;;9.71;78.77;101740.81;5057253;28;45424;-65
2024/02/06 00:06:41;;;;;;;;;16.75;12.00;;;;;9.73;78.79;101740.81;5057257;28;45427;-65
2024/02/06 00:09:08;;;;;;;;;16.25;12.50;;;;;9.71;78.79;101729.50;5039378;28;75449;-65
2024/02/06 00:11:33;;;;;;;;;23.25;14.25;;;;;9.70;78.99;101728.63;5039736;28;45369;-64
2024/02/06 00:13:59;;;;;;;;;59.75;44.25;;;;;9.69;79.06;101726.91;5041537;28;48438;-65
2024/02/06 00:16:24;;;;;;;;;20.00;13.75;;;;;9.68;78.83;101727.78;5040185;28;45487;-65
2024/02/06 00:18:50;;;;;;;;;18.50;15.75;;;;;9.70;78.73;101733.84;5076303;27;66132;-66
2024/02/06 00:21:16;;;;;;;;;16.00;13.00;;;;;9.68;79.01;101733.88;5041449;28;45299;-64
2024/02/06 00:23:41;;;;;;;;;15.75;13.25;;;;;9.66;78.76;101734.75;5073789;27;45586;-65
2024/02/06 00:26:06;;;;;;;;;22.50;15.00;;;;;9.66;79.03;101719.06;5041683;28;45311;-65
2024/02/06 00:28:32;;;;;;;;;22.00;15.75;;;;;9.66;79.08;101719.06;5039099;28;73600;-65
2024/02/06 00:30:57;;;;;;;;;27.25;19.50;;;;;9.66;79.14;101726.91;5041239;28;45292;-65
2024/02/06 00:33:23;;;;;;;;;12.25;11.25;;;;;9.67;79.11;101716.47;5041484;28;45301;-64
2024/02/06 00:35:48;;;;;;;;;13.50;11.00;;;;;9.70;78.85;101718.16;5040381;28;72026;-64
2024/02/06 00:38:13;;;;;;;;;14.00;9.00;;;;;9.69;78.95;101719.06;5041347;28;46028;-63
2024/02/06 00:40:39;;;;;;;;;18.25;14.00;;;;;9.70;79.33;101715.56;5047616;28;57944;-64
2024/02/06 00:43:04;;;;;;;;;18.00;14.00;;;;;9.72;79.29;101712.94;5041177;28;45734;-65
2024/02/06 00:45:29;;;;;;;;;14.50;11.50;;;;;9.72;79.16;101705.97;5048477;28;62226;-64
2024/02/06 00:47:55;;;;;;;;;16.75;11.00;;;;;9.71;79.04;101714.69;5047671;28;46735;-64
2024/02/06 00:50:20;;;;;;;;;17.00;12.00;;;;;9.73;79.13;101699.00;5040251;28;65169;-65
2024/02/06 00:52:46;;;;;;;;;17.50;11.25;;;;;9.68;79.00;101693.78;5040954;28;48943;-64
2024/02/06 00:55:12;;;;;;;;;16.25;12.00;;;;;9.71;79.01;101703.38;5040083;28;72590;-64
2024/02/06 00:57:38;;;;;;;;;23.75;14.00;;;;;9.69;79.19;101691.16;5040977;28;46285;-64
2024/02/06 01:00:04;;;;;;;;;18.25;12.50;;;;;9.72;79.52;101697.25;5039657;28;45339;-65
2024/02/06 01:02:30;;;;;;;;;18.50;13.25;;;;;9.71;79.54;101685.94;5073101;28;45315;-64
2024/02/06 01:04:55;;;;;;;;;14.25;12.00;;;;;9.72;79.54;101690.28;5040548;28;45559;-65
2024/02/06 01:07:21;;;;;;;;;14.75;12.50;;;;;9.73;79.48;101689.41;5040729;28;45647;-65
2024/02/06 01:09:47;;;;;;;;;17.00;14.00;;;;;9.75;79.44;101687.63;5040560;28;45465;-65
2024/02/06 01:12:12;;;;;;;;;14.25;11.50;;;;;9.75;79.45;101689.38;5040886;28;45628;-65
2024/02/06 01:14:37;;;;;;;;;14.75;12.25;;;;;9.76;79.51;101692.00;5050100;28;51717;-63
2024/02/06 01:17:04;;;;;;;;;19.00;13.25;;;;;9.76;79.27;101689.38;5044153;28;75498;-64
2024/02/06 01:19:30;;;;;;;;;11.00;8.00;;;;;9.78;79.55;101690.22;5038535;28;45275;-64
2024/02/06 01:21:55;;;;;;;;;14.50;13.00;;;;;9.80;79.12;101692.84;5039409;28;45221;-64
2024/02/06 01:24:21;;;;;;;;;17.75;14.00;;;;;9.81;79.47;101673.63;5040292;28;45217;-65
2024/02/06 01:26:46;;;;;;;;;14.00;11.75;;;;;9.84;79.30;101681.47;5040370;28;46295;-65
2024/02/06 01:29:12;;;;;;;;;19.75;13.50;;;;;9.84;79.33;101671.00;5039319;28;72307;-65
2024/02/06 01:31:37;;;;;;;;;15.25;12.50;;;;;9.86;79.32;101677.09;5040265;28;61365;-64
2024/02/06 01:34:02;;;;;;;;;21.75;13.50;;;;;9.87;79.11;101668.38;5040013;28;62352;-64
2024/02/06 01:36:28;;;;;;;;;22.75;14.25;;;;;9.84;79.02;101657.94;5038336;28;68748;-64
2024/02/06 01:38:53;;;;;;;;;14.25;11.00;;;;;9.83;79.08;101649.25;5072232;28;67521;-65
2024/02/06 01:41:18;;;;;;;;;16.75;13.50;;;;;9.84;79.07;101648.38;5043880;28;66447;-65
2024/02/06 01:43:44;;;;;;;;;17.50;12.00;;;;;9.85;79.45;101650.09;5048619;28;45404;-65
2024/02/06 01:46:09;;;;;;;;;13.25;12.00;;;;;9.81;79.20;101655.34;5039945;28;45379;-64
2024/02/06 01:48:34;;;;;;;;;18.50;13.00;;;;;9.83;79.02;101651.00;5044730;28;73346;-64
2024/02/06 01:51:01;;;;;;;;;17.75;11.25;;;;;9.82;79.30;101641.41;5038892;28;45379;-63
2024/02/06 01:53:26;;;;;;;;;12.50;12.00;;;;;9.81;79.35;101652.72;5040176;28;45489;-64
2024/02/06 01:55:53;;;;;;;;;12.50;12.00;;;;;9.81;79.57;101644.88;5039189;28;73096;-64
2024/02/06 01:58:19;;;;;;;;;15.75;14.75;;;;;9.81;79.47;101647.50;5047774;28;45284;-64
2024/02/06 02:00:45;;;;;;;;;23.00;11.75;;;;;9.79;79.36;101649.25;5040218;28;45227;-65
2024/02/06 02:03:11;;;;;;;;;17.50;13.00;;;;;9.76;79.63;101642.34;5039859;28;45502;-64
2024/02/06 02:05:38;;;;;;;;;18.00;14.00;;;;;9.77;79.78;101648.41;5022312;28;45448;-64
2024/02/06 02:08:04;;;;;;;;;18.00;13.25;;;;;9.77;79.69;101641.44;5038911;28;45888;-64
2024/02/06 02:10:29;;;;;;;;;16.50;16.25;;;;;9.78;79.62;101640.56;5039826;28;45461;-65
2024/02/06 02:12:55;;;;;;;;;19.75;15.75;;;;;9.79;80.01;101641.41;5038900;28;67125;-65
2024/02/06 02:15:21;;;;;;;;;17.75;14.75;;;;;9.81;79.53;101642.28;5039630;28;45410;-65
2024/02/06 02:17:50;;;;;;;;;18.75;16.00;;;;;9.80;79.66;101636.19;5038487;28;45460;-65
2024/02/06 02:20:15;;;;;;;;;22.25;13.25;;;;;9.80;79.89;101636.19;5031114;28;45368;-65
2024/02/06 02:22:41;;;;;;;;;21.25;16.00;;;;;9.80;79.63;101630.97;5043165;28;73290;-65
2024/02/06 02:25:06;;;;;;;;;19.75;13.00;;;;;9.82;79.75;101636.19;5038597;28;75575;-65
2024/02/06 02:27:32;;;;;;;;;23.50;16.50;;;;;9.84;79.81;101632.69;5039610;28;45425;-65
2024/02/06 02:29:57;;;;;;;;;18.75;16.25;;;;;9.83;79.65;101620.47;5039585;28;45419;-65
2024/02/06 02:32:23;;;;;;;;;18.25;13.25;;;;;9.84;79.55;101618.72;5037864;28;58391;-65
2024/02/06 02:34:48;;;;;;;;;27.50;16.75;;;;;9.84;79.81;101616.09;5053730;28;72938;-64
2024/02/06 02:37:14;;;;;;;;;20.00;15.25;;;;;9.84;79.83;101617.00;5039559;28;45315;-64
2024/02/06 02:39:39;;;;;;;;;19.00;16.25;;;;;9.85;79.85;101612.63;5043528;28;55187;-65
2024/02/06 02:42:04;;;;;;;;;21.25;15.25;;;;;9.88;79.81;101613.47;5035734;28;73060;-65
2024/02/06 02:44:30;;;;;;;;;18.50;16.00;;;;;9.88;79.59;101612.59;5039508;28;45443;-64
2024/02/06 02:46:55;;;;;;;;;20.75;17.00;;;;;9.89;79.87;101607.31;5038646;28;54803;-65
2024/02/06 02:49:21;;;;;;;;;21.25;16.25;;;;;9.92;79.69;101606.44;5038688;28;69141;-65
2024/02/06 02:51:47;;;;;;;;;21.25;18.00;;;;;9.92;79.72;101601.22;5037983;28;45775;-64
2024/02/06 02:54:12;;;;;;;;;19.00;15.25;;;;;9.94;79.83;101609.91;5038581;28;64779;-64
2024/02/06 02:56:37;;;;;;;;;22.00;15.75;;;;;9.94;79.58;101602.06;5039603;28;45248;-65
2024/02/06 02:59:03;;;;;;;;;21.25;16.00;;;;;9.95;79.61;101595.97;5038532;28;69383;-64
2024/02/06 03:01:28;;;;;;;;;18.75;14.75;;;;;9.96;79.37;101594.22;5038390;28;60740;-65
2024/02/06 03:03:53;;;;;;;;;17.25;15.75;;;;;9.96;79.62;101586.38;5039069;28;45381;-64
2024/02/06 03:06:19;;;;;;;;;27.75;16.25;;;;;9.96;79.59;101588.97;5038846;28;45208;-64
2024/02/06 03:08:45;;;;;;;;;27.25;21.00;;;;;9.95;79.38;101582.91;5038799;28;58682;-64
2024/02/06 03:11:10;;;;;;;;;25.50;18.50;;;;;9.95;79.21;101575.06;5039124;28;45587;-64
2024/02/06 03:13:36;;;;;;;;;19.00;13.50;;;;;9.97;79.35;101569.78;5038693;28;74208;-64
2024/02/06 03:16:01;;;;;;;;;18.75;15.75;;;;;9.96;79.52;101568.91;5038922;28;45406;-65
2024/02/06 03:18:27;;;;;;;;;22.00;16.75;;;;;9.95;79.54;101568.94;5038344;28;61058;-64
2024/02/06 03:20:52;;;;;;;;;18.00;15.25;;;;;9.95;79.29;101561.09;5026741;28;73395;-65
2024/02/06 03:23:22;;;;;;;;;15.75;12.25;;;;;9.93;79.56;101560.25;5038912;28;46729;-64
2024/02/06 03:25:47;;;;;;;;;21.75;16.00;;;;;9.94;79.54;101556.75;5038881;28;45190;-64
2024/02/06 03:28:12;;;;;;;;;22.25;16.75;;;;;9.95;79.18;101551.50;5038448;28;55175;-64
2024/02/06 03:30:38;;;;;;;;;23.50;17.75;;;;;9.92;79.56;101548.94;5039080;28;47426;-65
2024/02/06 03:33:04;;;;;;;;;18.50;15.25;;;;;9.94;79.46;101548.91;5039022;28;46808;-64
2024/02/06 03:35:29;;;;;;;;;20.50;17.50;;;;;9.93;79.55;101540.19;5038589;28;45398;-64
2024/02/06 03:37:54;;;;;;;;;23.50;17.75;;;;;9.96;79.39;101549.75;5039153;28;45343;-65
2024/02/06 03:40:20;;;;;;;;;16.75;13.00;;;;;9.96;79.69;101544.53;5035003;28;72161;-65
2024/02/06 03:42:45;;;;;;;;;20.25;14.75;;;;;9.97;79.29;101541.00;5038813;28;45188;-64
2024/02/06 03:45:10;;;;;;;;;14.00;9.50;;;;;9.98;79.33;101543.63;5037878;28;72801;-64
2024/02/06 03:47:36;;;;;;;;;20.50;15.75;;;;;10.00;79.64;101543.59;5040701;28;67093;-64
2024/02/06 03:50:01;;;;;;;;;25.25;19.25;;;;;10.00;79.39;101539.22;5041747;28;45386;-65
2024/02/06 03:52:26;;;;;;;;;21.75;17.00;;;;;10.01;79.44;101547.97;5041182;28;72099;-65
2024/02/06 03:54:52;;;;;;;;;14.25;14.00;;;;;10.03;79.00;101546.19;5041076;28;68514;-65
2024/02/06 03:57:17;;;;;;;;;22.50;15.00;;;;;10.03;79.64;101538.34;5042360;28;45501;-64
2024/02/06 03:59:43;;;;;;;;;22.00;17.50;;;;;10.05;79.20;101539.19;5041769;28;45379;-64
2024/02/06 04:02:08;;;;;;;;;28.75;19.00;;;;;10.07;79.37;101540.03;5040343;28;47791;-64
2024/02/06 04:04:33;;;;;;;;;20.50;16.00;;;;;10.08;79.40;101529.56;5041961;28;45437;-64
2024/02/06 04:06:59;;;;;;;;;22.75;18.25;;;;;10.10;79.21;101526.06;5055952;28;65518;-64
2024/02/06 04:09:24;;;;;;;;;18.25;15.75;;;;;10.12;79.05;101527.75;5041218;28;56400;-64
2024/02/06 04:11:49;;;;;;;;;18.50;14.00;;;;;10.15;79.28;101524.25;5040723;28;73869;-64
2024/02/06 04:14:15;;;;;;;;;20.25;13.75;;;;;10.16;78.92;101525.97;5041342;28;51263;-64
2024/02/06 04:16:40;;;;;;;;;19.00;14.50;;;;;10.14;78.99;101520.75;5041878;28;45343;-65
2024/02/06 04:19:06;;;;;;;;;19.75;15.00;;;;;10.15;79.09;101516.41;5038832;28;57632;-65
2024/02/06 04:21:31;;;;;;;;;21.25;16.25;;;;;10.14;79.09;101518.16;5036122;28;71996;-63
2024/02/06 04:23:56;;;;;;;;;22.50;18.00;;;;;10.15;78.83;101519.03;5040464;28;73226;-64
2024/02/06 04:26:22;;;;;;;;;21.50;15.75;;;;;10.15;78.76;101522.50;5044061;28;69217;-65
2024/02/06 04:28:47;;;;;;;;;21.25;16.00;;;;;10.15;78.83;101517.28;5073552;28;45559;-65
2024/02/06 04:31:12;;;;;;;;;23.75;17.75;;;;;10.16;79.01;101508.53;5040724;28;64604;-64
2024/02/06 04:33:39;;;;;;;;;20.50;15.00;;;;;10.17;79.00;101509.41;5043832;28;73239;-64
2024/02/06 04:36:04;;;;;;;;;23.50;16.00;;;;;10.17;79.05;101515.50;5041521;28;45391;-65
2024/02/06 04:38:30;;;;;;;;;24.00;16.50;;;;;10.17;78.80;101517.25;5041777;28;46172;-64
2024/02/06 04:40:55;;;;;;;;;24.00;16.00;;;;;10.15;78.86;101501.56;5039942;28;73903;-64
2024/02/06 04:43:22;;;;;;;;;22.25;15.50;;;;;10.14;78.61;101505.06;5040280;28;72451;-64
2024/02/06 04:45:47;;;;;;;;;22.75;16.25;;;;;10.16;78.60;101512.91;5040823;28;45475;-64
2024/02/06 04:48:12;;;;;;;;;21.75;14.25;;;;;10.16;79.04;101513.75;5040488;28;66212;-64
2024/02/06 04:50:38;;;;;;;;;21.50;18.00;;;;;10.18;78.88;101519.84;5040050;28;71077;-64
2024/02/06 04:53:04;;;;;;;;;22.75;18.50;;;;;10.20;78.76;101512.00;5040658;28;53169;-65
2024/02/06 04:55:30;;;;;;;;;20.50;17.00;;;;;10.20;78.83;101509.38;5045313;28;45319;-65
2024/02/06 04:57:58;;;;;;;;;25.75;20.00;;;;;10.22;78.89;101503.22;5039453;28;45565;-65
2024/02/06 05:00:23;;;;;;;;;24.75;15.75;;;;;10.22;78.93;101499.75;5040815;28;45395;-65
2024/02/06 05:02:48;;;;;;;;;20.75;15.25;;;;;10.20;78.96;101483.22;5038576;28;70949;-65
2024/02/06 05:05:13;;;;;;;;;21.25;14.75;;;;;10.20;79.09;101489.31;5040938;28;45283;-65
2024/02/06 05:07:39;;;;;;;;;27.00;16.50;;;;;10.19;78.94;101489.31;5039947;28;72311;-65
2024/02/06 05:10:05;;;;;;;;;23.50;16.75;;;;;10.18;79.20;101496.31;5040713;28;45413;-65
2024/02/06 05:12:30;;;;;;;;;22.00;15.75;;;;;10.15;79.05;101491.13;5041252;28;45161;-65
2024/02/06 05:14:55;;;;;;;;;21.50;16.25;;;;;10.14;79.10;101492.00;5040021;28;66338;-65
2024/02/06 05:17:21;;;;;;;;;23.75;15.25;;;;;10.15;79.14;101480.66;5039589;28;71404;-65
2024/02/06 05:19:46;;;;;;;;;20.00;14.25;;;;;10.14;79.11;101475.44;5034133;28;46213;-64
2024/02/06 05:22:11;;;;;;;;;24.25;16.75;;;;;10.14;79.10;101480.66;5040630;28;46205;-65
2024/02/06 05:24:37;;;;;;;;;17.50;12.75;;;;;10.13;79.28;101468.47;5039922;28;63149;-65
2024/02/06 05:27:05;;;;;;;;;24.75;17.25;;;;;10.13;79.13;101465.84;5040511;28;45431;-65
2024/02/06 05:29:33;;;;;;;;;17.75;14.50;;;;;10.13;79.49;101468.47;5044225;28;45343;-65
2024/02/06 05:31:58;;;;;;;;;25.25;16.75;;;;;10.13;79.06;101477.19;5040545;28;45258;-64
2024/02/06 05:34:23;;;;;;;;;24.25;16.75;;;;;10.13;79.33;101465.84;5039727;28;66795;-65
2024/02/06 05:36:49;;;;;;;;;18.75;13.00;;;;;10.14;79.12;101468.44;5072765;27;45260;-64
2024/02/06 05:39:14;;;;;;;;;20.00;13.00;;;;;10.14;79.46;101470.22;5039724;28;71698;-64
2024/02/06 05:41:40;;;;;;;;;18.00;13.00;;;;;10.18;79.38;101477.13;5037671;28;45235;-65
2024/02/06 05:44:05;;;;;;;;;22.75;17.00;;;;;10.17;79.05;101472.78;5039102;28;64264;-65
2024/02/06 05:46:30;;;;;;;;;18.75;14.00;;;;;10.18;79.44;101461.44;5044618;28;62839;-64
2024/02/06 05:48:57;;;;;;;;;15.25;12.25;;;;;10.20;79.28;101464.91;5040229;28;45588;-64
2024/02/06 05:51:22;;;;;;;;;21.25;16.00;;;;;10.21;79.56;101459.63;5039734;28;45966;-64
2024/02/06 05:53:47;;;;;;;;;21.75;15.75;;;;;10.22;79.20;101466.59;5046400;28;45342;-65
2024/02/06 05:56:13;;;;;;;;;27.25;21.00;;;;;10.18;79.12;101446.63;5037766;28;72865;-65
2024/02/06 05:58:41;;;;;;;;;24.75;16.75;;;;;10.26;79.34;101455.19;5039384;28;67399;-64
2024/02/06 06:01:07;;;;;;;;;16.25;12.25;;;;;10.26;79.29;101446.50;5071606;28;45346;-64
2024/02/06 06:03:32;;;;;;;;;20.25;14.00;;;;;10.26;79.30;101447.34;5045046;28;45204;-65
2024/02/06 06:05:57;;;;;;;;;18.50;14.50;;;;;10.30;79.23;101453.41;5039503;28;45342;-65
2024/02/06 06:08:23;;;;;;;;;24.00;16.75;;;;;10.29;79.21;101442.97;5044253;28;74785;-65
2024/02/06 06:10:48;;;;;;;;;16.50;15.25;;;;;10.30;78.91;101442.09;5038649;28;72239;-65
2024/02/06 06:13:14;;;;;;;;;23.25;15.25;;;;;10.31;78.90;101446.44;5041845;28;58669;-65
2024/02/06 06:15:40;;;;;;;;;22.25;16.50;;;;;10.27;79.22;101443.88;5043112;28;45616;-65
2024/02/06 06:18:06;;;;;;;;;19.00;14.00;;;;;10.33;79.05;101455.16;5039692;28;45558;-65
2024/02/06 06:20:31;;;;;;;;;21.75;15.75;;;;;10.30;78.98;101442.09;5038523;28;45293;-65
2024/02/06 06:22:57;;;;;;;;;22.50;16.50;;;;;10.32;79.04;101445.56;5039825;28;45671;-65
2024/02/06 06:25:22;;;;;;;;;16.75;14.00;;;;;10.31;79.18;101444.72;5039548;28;45417;-65
2024/02/06 06:27:49;;;;;;;;;21.00;15.00;;;;;10.33;78.86;101449.94;5038687;28;72023;-65
2024/02/06 06:30:15;;;;;;;;;21.75;16.25;;;;;10.32;78.82;101454.28;5039431;28;45347;-65
2024/02/06 06:32:40;;;;;;;;;18.25;17.00;;;;;10.32;78.69;101456.03;5055677;28;45469;-65
2024/02/06 06:35:06;;;;;;;;;16.00;14.75;;;;;10.31;78.68;101447.34;5039186;28;45379;-65
2024/02/06 06:37:32;;;;;;;;;21.50;17.00;;;;;10.26;78.96;101444.75;5039864;28;45954;-65
2024/02/06 06:39:57;;;;;;;;;17.00;13.75;;;;;10.31;79.12;101446.44;5042638;28;45329;-64
2024/02/06 06:42:23;;;;;;;;;21.75;15.25;;;;;10.30;79.14;101447.31;5038385;28;45426;-65
2024/02/06 06:44:48;;;;;;;;;20.00;13.50;;;;;10.31;78.91;101444.72;5039582;28;45244;-64
2024/02/06 06:47:14;;;;;;;;;22.00;16.25;;;;;10.32;79.08;101433.34;5039314;28;45395;-65
2024/02/06 06:49:39;;;;;;;;;19.50;16.75;;;;;10.32;78.99;101435.97;5039247;28;45226;-65
2024/02/06 06:52:07;;;;;;;;;16.75;14.50;;;;;10.32;78.97;101446.44;5037781;28;45286;-64
2024/02/06 06:54:33;;;;;;;;;26.00;15.75;;;;;10.34;78.70;101446.41;5043034;28;45309;-65
2024/02/06 06:56:58;;;;;;;;;23.00;14.50;;;;;10.34;78.64;101444.69;5038153;28;47428;-64
2024/02/06 06:59:24;;;;;;;;;23.25;19.25;;;;;10.35;78.72;101435.06;5038722;28;59961;-65
2024/02/06 07:01:49;;;;;;;;;29.50;20.50;;;;;10.34;78.73;101439.44;5038872;28;57478;-64
2024/02/06 07:04:15;;;;;;;;;43.25;34.50;;;;;10.35;78.64;101440.31;5039166;28;45601;-64
2024/02/06 07:06:40;;;;;;;;;24.00;14.50;;;;;10.36;78.98;101432.44;5038914;28;47143;-64
2024/02/06 07:09:06;;;;;;;;;17.25;12.50;;;;;10.36;78.75;101435.06;5038574;28;57973;-65
2024/02/06 07:11:31;;;;;;;;;21.50;15.75;;;;;10.38;78.88;101440.28;5039761;28;45298;-65
2024/02/06 07:13:58;;;;;;;;;11.75;10.25;;;;;10.35;78.61;101435.06;5036934;28;70650;-64
2024/02/06 07:16:23;;;;;;;;;23.75;14.00;;;;;10.37;78.99;101446.38;5038939;28;46947;-64
2024/02/06 07:18:48;;;;;;;;;18.75;14.00;;;;;10.37;78.71;101442.00;5038531;28;55490;-64
2024/02/06 07:21:14;;;;;;;;;18.50;15.25;;;;;10.38;78.89;101451.59;5038920;28;66811;-64
2024/02/06 07:23:40;;;;;;;;;19.00;13.50;;;;;10.38;78.89;101443.75;5044800;28;72011;-66
2024/02/06 07:26:10;;;;;;;;;18.00;13.75;;;;;10.39;78.58;101453.34;5042424;28;45343;-64
2024/02/06 07:28:36;;;;;;;;;19.50;15.00;;;;;10.38;78.56;101456.81;5039992;28;45310;-65
2024/02/06 07:31:01;;;;;;;;;24.00;16.00;;;;;10.39;78.45;101455.06;5042454;28;45421;-64
2024/02/06 07:33:26;;;;;;;;;20.25;14.75;;;;;10.40;78.76;101454.19;5042573;28;45358;-64
2024/02/06 07:35:52;;;;;;;;;16.50;13.00;;;;;10.42;78.27;101471.59;5041202;28;68765;-64
2024/02/06 07:38:17;;;;;;;;;21.00;13.25;;;;;10.44;78.32;101477.66;5034440;28;74242;-64
2024/02/06 07:40:42;;;;;;;;;16.75;14.00;;;;;10.49;78.16;101484.59;5061778;28;64992;-64
2024/02/06 07:43:08;;;;;;;;;24.50;16.50;;;;;10.50;78.42;101484.56;5041285;28;73253;-64
2024/02/06 07:45:33;;;;;;;;;20.75;15.50;;;;;10.54;78.04;101480.16;5041239;28;74546;-65
2024/02/06 07:47:58;;;;;;;;;19.75;16.00;;;;;10.55;78.05;101492.34;5041271;28;69962;-64
2024/02/06 07:50:24;;;;;;;;;26.00;15.25;;;;;10.55;77.71;101476.63;5056778;28;61523;-64
2024/02/06 07:52:49;;;;;;;;;17.50;14.25;;;;;10.56;77.53;101483.63;5042219;28;45492;-64
2024/02/06 07:55:15;;;;;;;;;22.50;17.00;;;;;10.58;77.82;101489.69;5040798;28;75598;-65
2024/02/06 07:57:40;;;;;;;;;18.75;15.00;;;;;10.59;77.50;101484.44;5040659;28;45385;-65
2024/02/06 08:00:09;;;;;;;;;16.50;13.25;;;;;10.59;77.34;101480.97;5040971;28;45398;-65
2024/02/06 08:02:35;;;;;;;;;13.25;11.50;;;;;10.60;77.46;101478.28;5043289;28;45325;-65
2024/02/06 08:05:00;;;;;;;;;19.75;12.00;;;;;10.64;76.92;101489.56;5055335;28;46907;-65
2024/02/06 08:07:27;;;;;;;;;16.25;13.00;;;;;10.63;77.04;101482.63;5041895;28;45413;-64
2024/02/06 08:09:53;;;;;;;;;22.25;14.00;;;;;10.68;76.91;101480.81;5041851;28;45508;-65
2024/02/06 08:12:18;;;;;;;;;17.00;12.25;;;;;10.70;76.63;101473.78;5041916;28;45150;-65
2024/02/06 08:14:43;;;;;;;;;19.75;13.75;;;;;10.71;76.55;101483.38;5053237;28;71281;-65
2024/02/06 08:17:09;;;;;;;;;24.25;14.75;;;;;10.70;76.77;101483.41;5074204;28;45252;-64
2024/02/06 08:19:34;;;;;;;;;21.00;13.50;;;;;10.75;76.63;101492.91;5042980;28;45366;-65
2024/02/06 08:21:59;;;;;;;;;22.75;13.50;;;;;10.76;76.46;101478.06;5039621;28;66358;-65
2024/02/06 08:24:25;;;;;;;;;16.50;11.25;;;;;10.78;76.22;101481.50;5041537;28;45213;-65
2024/02/06 08:26:50;;;;;;;;;13.75;10.75;;;;;10.81;76.20;101477.09;5050149;28;75322;-64
2024/02/06 08:29:15;;;;;;;;;20.50;13.75;;;;;10.83;75.85;101477.06;5041031;28;51151;-64
2024/02/06 08:31:41;;;;;;;;;13.25;11.00;;;;;10.85;76.11;101475.28;5040059;28;73106;-64
2024/02/06 08:34:07;;;;;;;;;18.50;13.50;;;;;10.86;75.57;101484.88;5041270;28;46131;-64
2024/02/06 08:36:32;;;;;;;;;20.75;13.75;;;;;10.89;75.86;101474.38;5042665;28;45583;-64
2024/02/06 08:38:58;;;;;;;;;18.00;14.75;;;;;10.95;75.45;101479.50;5040880;28;62534;-65
2024/02/06 08:41:28;;;;;;;;;15.25;11.25;;;;;10.99;75.31;101472.44;5046089;28;45325;-65
2024/02/06 08:43:54;;;;;;;;;20.00;13.00;;;;;11.02;74.95;101473.25;5072161;28;47208;-64
2024/02/06 08:46:19;;;;;;;;;16.50;13.00;;;;;11.07;75.19;101464.47;5041021;28;45429;-64
2024/02/06 08:48:45;;;;;;;;;14.75;12.50;;;;;11.09;74.74;101466.16;5040697;28;65885;-64
2024/02/06 08:51:10;;;;;;;;;20.25;11.75;;;;;11.11;74.33;101474.84;5040454;28;57940;-64
2024/02/06 08:53:35;;;;;;;;;20.25;13.50;;;;;11.10;74.19;101469.63;5046331;28;45342;-64
2024/02/06 08:56:02;;;;;;;;;18.25;15.50;;;;;11.14;74.34;101479.19;5039743;28;45281;-65
2024/02/06 08:58:28;;;;;;;;;17.00;12.25;;;;;11.15;74.16;101473.03;5041419;28;45565;-64
2024/02/06 09:00:53;;;;;;;;;18.75;12.75;;;;;11.18;74.03;101473.00;5041094;28;45660;-65
2024/02/06 09:03:18;;;;;;;;;12.25;9.50;;;;;11.20;74.04;101465.97;5039912;28;70223;-64
2024/02/06 09:05:44;;;;;;;;;18.50;12.75;;;;;11.23;73.71;101468.53;5039439;28;73300;-64
2024/02/06 09:08:10;;;;;;;;;15.25;14.75;;;;;11.26;73.86;101470.25;5041122;28;45306;-65
2024/02/06 09:10:36;;;;;;;;;13.25;8.25;;;;;11.28;73.67;101474.56;5061523;28;45313;-65
2024/02/06 09:13:03;;;;;;;;;15.50;13.50;;;;;11.33;73.58;101474.47;5040044;28;67690;-65
2024/02/06 09:15:29;;;;;;;;;17.75;12.50;;;;;11.34;73.32;101471.81;5040561;28;45283;-65
2024/02/06 09:17:54;;;;;;;;;20.25;14.00;;;;;11.37;72.91;101470.94;5042506;28;45355;-65
2024/02/06 09:20:20;;;;;;;;;13.00;9.00;;;;;11.40;72.73;101476.97;5030418;28;52153;-65
2024/02/06 09:22:46;;;;;;;;;11.50;9.00;;;;;11.44;72.42;101477.78;5040549;28;46235;-65
2024/02/06 09:25:11;;;;;;;;;17.00;10.25;;;;;11.43;72.38;101472.56;5040491;28;45560;-64
2024/02/06 09:27:36;;;;;;;;;12.25;8.00;;;;;11.47;72.19;101471.59;5041121;28;45305;-65
2024/02/06 09:30:03;;;;;;;;;9.75;8.75;;;;;11.50;72.23;101471.56;5040220;28;61535;-65
2024/02/06 09:32:29;;;;;;;;;14.75;10.75;;;;;11.52;72.23;101462.75;5040635;28;45343;-65
2024/02/06 09:34:55;;;;;;;;;18.50;10.25;;;;;11.57;72.01;101460.91;5038944;28;73314;-64
2024/02/06 09:37:20;;;;;;;;;12.25;9.50;;;;;11.63;71.94;101459.06;5039384;28;45373;-64
2024/02/06 09:39:46;;;;;;;;;19.00;10.50;;;;;11.66;71.58;101452.00;5044457;28;45346;-64
2024/02/06 09:42:11;;;;;;;;;14.75;9.25;;;;;11.71;71.41;101444.06;5039464;28;68640;-64
2024/02/06 09:44:37;;;;;;;;;11.75;8.25;;;;;11.74;71.44;101446.63;5038444;28;72017;-64
2024/02/06 09:47:02;;;;;;;;;13.25;10.75;;;;;11.79;71.49;101449.97;5039154;28;45361;-65
2024/02/06 09:49:28;;;;;;;;;14.00;10.25;;;;;11.81;71.10;101439.47;5039974;28;45216;-63
2024/02/06 09:51:54;;;;;;;;;12.75;10.00;;;;;11.92;70.90;101448.03;5072448;28;47672;-65
2024/02/06 09:54:23;;;;;;;;;16.50;10.75;;;;;11.99;70.79;101449.63;5071638;28;69897;-65
2024/02/06 09:56:49;;;;;;;;;16.25;14.00;;;;;12.04;70.38;101446.88;5039037;28;45364;-64
2024/02/06 09:59:16;;;;;;;;;14.25;11.00;;;;;12.14;70.67;101456.28;5038376;28;52366;-64
2024/02/06 10:01:43;;;;;;;;;15.00;12.50;;;;;12.23;70.52;101465.72;5039233;28;45450;-64
2024/02/06 10:04:13;;;;;;;;;14.00;11.00;;;;;12.29;70.44;101448.09;5038624;28;45241;-65
2024/02/06 10:06:39;;;;;;;;;19.25;9.00;;;;;12.35;70.09;101454.94;5039939;28;45327;-64
2024/02/06 10:09:05;;;;;;;;;17.75;9.50;;;;;12.39;68.98;101456.59;5055515;28;45301;-64
2024/02/06 10:11:33;;;;;;;;;13.25;11.50;;;;;12.43;69.43;101457.38;5039917;28;45364;-65
2024/02/06 10:13:59;;;;;;;;;15.00;10.00;;;;;12.48;68.77;101461.66;5055434;28;45626;-64
2024/02/06 10:16:24;;;;;;;;;12.00;9.00;;;;;12.54;69.15;101464.13;5040088;28;45401;-65
2024/02/06 10:18:53;;;;;;;;;11.75;9.50;;;;;12.59;68.50;101442.13;5040167;28;67040;-63
2024/02/06 10:21:19;;;;;;;;;13.25;10.00;;;;;12.61;68.54;101443.84;5030869;28;46957;-65
2024/02/06 10:23:46;;;;;;;;;18.75;8.50;;;;;12.65;68.26;101448.09;5040593;28;57095;-64
2024/02/06 10:26:19;;;;;;;;;10.00;6.75;;;;;12.68;67.89;101439.31;5042759;28;45391;-64
2024/02/06 10:28:45;;;;;;;;;14.25;9.75;;;;;12.72;68.03;101428.66;5057527;28;45497;-64
2024/02/06 10:31:12;;;;;;;;;13.25;8.25;;;;;12.78;67.21;101425.03;5041420;28;45678;-65
2024/02/06 10:33:40;;;;;;;;;13.25;8.50;;;;;12.80;67.54;101420.63;5037941;28;45415;-64
2024/02/06 10:36:06;;;;;;;;;58.25;44.25;;;;;12.86;67.02;101435.34;5039680;28;45404;-65
2024/02/06 10:38:32;;;;;;;;;10.00;8.75;;;;;12.89;67.21;101432.63;5039193;28;45293;-64
2024/02/06 10:40:57;;;;;;;;;13.50;8.75;;;;;12.96;67.19;101435.97;5039849;28;45454;-63
2024/02/06 10:43:29;;;;;;;;;10.50;7.75;;;;;12.95;66.58;101423.75;5039363;28;45720;-64
2024/02/06 10:45:58;;;;;;;;;15.50;8.25;;;;;13.00;66.76;101435.88;5039582;28;45409;-64
2024/02/06 10:48:24;;;;;;;;;13.25;9.50;;;;;13.03;66.56;101429.66;5040817;28;45249;-65
2024/02/06 10:50:57;;;;;;;;;14.75;10.75;;;;;13.05;66.17;101426.09;5039816;28;45448;-66
2024/02/06 10:53:23;;;;;;;;;9.50;7.50;;;;;13.07;66.11;101431.31;5038720;28;45869;-65
2024/02/06 10:55:49;;;;;;;;;14.00;9.00;;;;;13.09;65.92;101416.38;5056553;28;69413;-65
2024/02/06 10:58:18;;;;;;;;;11.00;9.25;;;;;13.11;65.96;101417.19;5041714;28;45314;-65
2024/02/06 11:00:44;;;;;;;;;13.75;9.50;;;;;13.17;66.29;101400.38;5024926;28;47299;-64
2024/02/06 11:03:12;;;;;;;;;13.00;5.25;;;;;13.19;65.50;101403.84;5045527;28;45692;-64
2024/02/06 11:05:57;;;;;;;;;6.50;3.50;;;;;13.19;65.31;101401.19;5040782;28;52275;-65